sensor_id;sensor_type;location;lat;lon;timestamp;temperature;humidity
42755;DHT22;28407;51.830;5.684;2023-07-31T00:00:30;19.10;76.90
42755;DHT22;28407;51.830;5.684;2023-07-31T00:02:31;19.10;76.90
42755;DHT22;28407;51.830;5.684;2023-07-31T00:04:32;19.10;77.00
42755;DHT22;28407;51.830;5.684;2023-07-31T00:06:32;19.10;77.00
42755;DHT22;28407;51.830;5.684;2023-07-31T00:08:33;19.00;77.10
42755;DHT22;28407;51.830;5.684;2023-07-31T00:10:33;19.00;77.20
42755;DHT22;28407;51.830;5.684;2023-07-31T00:12:34;19.00;77.40
42755;DHT22;28407;51.830;5.684;2023-07-31T00:14:35;19.10;77.50
42755;DHT22;28407;51.830;5.684;2023-07-31T00:16:36;19.00;77.50
42755;DHT22;28407;51.830;5.684;2023-07-31T00:18:36;19.00;77.60
42755;DHT22;28407;51.830;5.684;2023-07-31T00:20:37;19.10;77.80
42755;DHT22;28407;51.830;5.684;2023-07-31T00:22:38;19.00;77.90
42755;DHT22;28407;51.830;5.684;2023-07-31T00:24:38;19.00;78.00
42755;DHT22;28407;51.830;5.684;2023-07-31T00:26:39;19.00;78.10
42755;DHT22;28407;51.830;5.684;2023-07-31T00:28:40;19.00;78.30
42755;DHT22;28407;51.830;5.684;2023-07-31T00:30:40;19.00;78.40
42755;DHT22;28407;51.830;5.684;2023-07-31T00:32:41;19.10;78.50
42755;DHT22;28407;51.830;5.684;2023-07-31T00:34:42;19.10;78.70
42755;DHT22;28407;51.830;5.684;2023-07-31T00:36:43;19.00;78.80
42755;DHT22;28407;51.830;5.684;2023-07-31T00:38:43;19.00;78.90
42755;DHT22;28407;51.830;5.684;2023-07-31T00:40:44;19.00;79.10
42755;DHT22;28407;51.830;5.684;2023-07-31T00:42:45;19.00;79.30
42755;DHT22;28407;51.830;5.684;2023-07-31T00:44:46;19.00;79.40
42755;DHT22;28407;51.830;5.684;2023-07-31T00:46:46;19.00;79.50
42755;DHT22;28407;51.830;5.684;2023-07-31T00:48:47;19.00;79.50
42755;DHT22;28407;51.830;5.684;2023-07-31T00:50:48;19.00;80.20
42755;DHT22;28407;51.830;5.684;2023-07-31T00:52:49;19.00;79.60
42755;DHT22;28407;51.830;5.684;2023-07-31T00:54:52;19.00;79.70
42755;DHT22;28407;51.830;5.684;2023-07-31T00:56:53;19.00;79.80
42755;DHT22;28407;51.830;5.684;2023-07-31T00:58:56;19.00;79.90
42755;DHT22;28407;51.830;5.684;2023-07-31T01:00:57;19.00;80.00
42755;DHT22;28407;51.830;5.684;2023-07-31T01:02:58;19.00;80.00
42755;DHT22;28407;51.830;5.684;2023-07-31T01:04:59;19.00;80.10
42755;DHT22;28407;51.830;5.684;2023-07-31T01:11:28;19.00;80.20
42755;DHT22;28407;51.830;5.684;2023-07-31T01:13:29;19.00;80.20
42755;DHT22;28407;51.830;5.684;2023-07-31T01:15:30;19.00;80.20
42755;DHT22;28407;51.830;5.684;2023-07-31T01:17:31;19.00;80.30
42755;DHT22;28407;51.830;5.684;2023-07-31T01:19:31;19.00;80.30
42755;DHT22;28407;51.830;5.684;2023-07-31T01:24:10;19.00;80.40
42755;DHT22;28407;51.830;5.684;2023-07-31T01:26:17;19.00;80.50
42755;DHT22;28407;51.830;5.684;2023-07-31T01:30:48;19.00;80.70
42755;DHT22;28407;51.830;5.684;2023-07-31T01:32:49;19.00;80.60
42755;DHT22;28407;51.830;5.684;2023-07-31T01:34:52;19.00;80.60
42755;DHT22;28407;51.830;5.684;2023-07-31T01:36:53;19.00;80.60
42755;DHT22;28407;51.830;5.684;2023-07-31T01:38:58;18.90;80.40
42755;DHT22;28407;51.830;5.684;2023-07-31T01:41:00;18.90;80.60
42755;DHT22;28407;51.830;5.684;2023-07-31T01:43:01;18.90;80.60
42755;DHT22;28407;51.830;5.684;2023-07-31T01:45:03;18.90;80.60
42755;DHT22;28407;51.830;5.684;2023-07-31T01:47:07;18.90;80.60
42755;DHT22;28407;51.830;5.684;2023-07-31T01:49:08;18.90;80.70
42755;DHT22;28407;51.830;5.684;2023-07-31T01:51:08;18.90;80.70
42755;DHT22;28407;51.830;5.684;2023-07-31T01:53:10;18.90;80.80
42755;DHT22;28407;51.830;5.684;2023-07-31T01:55:12;18.90;80.80
42755;DHT22;28407;51.830;5.684;2023-07-31T01:57:13;18.90;80.70
42755;DHT22;28407;51.830;5.684;2023-07-31T01:59:14;18.90;80.70
42755;DHT22;28407;51.830;5.684;2023-07-31T02:01:14;18.80;80.80
42755;DHT22;28407;51.830;5.684;2023-07-31T02:03:15;18.80;80.80
42755;DHT22;28407;51.830;5.684;2023-07-31T02:05:16;18.80;80.80
42755;DHT22;28407;51.830;5.684;2023-07-31T02:07:17;18.80;80.80
42755;DHT22;28407;51.830;5.684;2023-07-31T02:09:17;18.90;80.90
42755;DHT22;28407;51.830;5.684;2023-07-31T02:11:18;18.80;80.80
42755;DHT22;28407;51.830;5.684;2023-07-31T02:13:19;18.90;80.90
42755;DHT22;28407;51.830;5.684;2023-07-31T02:15:20;18.80;80.90
42755;DHT22;28407;51.830;5.684;2023-07-31T02:17:21;18.90;81.00
42755;DHT22;28407;51.830;5.684;2023-07-31T02:19:22;18.80;80.90
42755;DHT22;28407;51.830;5.684;2023-07-31T02:21:29;18.80;80.90
42755;DHT22;28407;51.830;5.684;2023-07-31T02:23:35;18.80;81.00
42755;DHT22;28407;51.830;5.684;2023-07-31T02:25:36;18.80;81.00
42755;DHT22;28407;51.830;5.684;2023-07-31T02:27:36;18.80;81.00
42755;DHT22;28407;51.830;5.684;2023-07-31T02:29:37;18.80;81.00
42755;DHT22;28407;51.830;5.684;2023-07-31T02:31:38;18.80;81.00
42755;DHT22;28407;51.830;5.684;2023-07-31T02:33:39;18.80;81.10
42755;DHT22;28407;51.830;5.684;2023-07-31T02:35:40;18.80;81.20
42755;DHT22;28407;51.830;5.684;2023-07-31T02:37:44;18.80;81.20
42755;DHT22;28407;51.830;5.684;2023-07-31T02:39:44;18.80;81.20
42755;DHT22;28407;51.830;5.684;2023-07-31T02:41:45;18.80;81.20
42755;DHT22;28407;51.830;5.684;2023-07-31T02:43:45;18.80;81.20
42755;DHT22;28407;51.830;5.684;2023-07-31T02:45:51;18.80;81.20
42755;DHT22;28407;51.830;5.684;2023-07-31T02:47:52;18.80;81.30
42755;DHT22;28407;51.830;5.684;2023-07-31T02:49:52;18.80;81.30
42755;DHT22;28407;51.830;5.684;2023-07-31T02:51:53;18.80;81.30
42755;DHT22;28407;51.830;5.684;2023-07-31T02:53:54;18.70;81.30
42755;DHT22;28407;51.830;5.684;2023-07-31T02:55:54;18.70;81.40
42755;DHT22;28407;51.830;5.684;2023-07-31T02:57:55;18.70;81.30
42755;DHT22;28407;51.830;5.684;2023-07-31T02:59:56;18.80;81.40
42755;DHT22;28407;51.830;5.684;2023-07-31T03:01:56;18.70;81.30
42755;DHT22;28407;51.830;5.684;2023-07-31T03:03:57;18.70;81.30
42755;DHT22;28407;51.830;5.684;2023-07-31T03:05:58;18.70;81.30
42755;DHT22;28407;51.830;5.684;2023-07-31T03:07:58;18.70;81.30
42755;DHT22;28407;51.830;5.684;2023-07-31T03:09:59;18.70;81.30
42755;DHT22;28407;51.830;5.684;2023-07-31T03:12:00;18.80;81.30
42755;DHT22;28407;51.830;5.684;2023-07-31T03:14:00;18.80;81.20
42755;DHT22;28407;51.830;5.684;2023-07-31T03:16:01;18.80;81.20
42755;DHT22;28407;51.830;5.684;2023-07-31T03:18:02;18.80;81.10
42755;DHT22;28407;51.830;5.684;2023-07-31T03:20:03;18.80;81.10
42755;DHT22;28407;51.830;5.684;2023-07-31T03:22:05;18.80;81.20
42755;DHT22;28407;51.830;5.684;2023-07-31T03:24:05;18.80;81.10
42755;DHT22;28407;51.830;5.684;2023-07-31T03:26:07;18.70;81.10
42755;DHT22;28407;51.830;5.684;2023-07-31T03:28:08;18.70;81.10
42755;DHT22;28407;51.830;5.684;2023-07-31T03:30:09;18.70;81.10
42755;DHT22;28407;51.830;5.684;2023-07-31T03:32:10;18.70;81.00
42755;DHT22;28407;51.830;5.684;2023-07-31T03:34:11;18.70;81.00
42755;DHT22;28407;51.830;5.684;2023-07-31T03:36:12;18.70;81.00
42755;DHT22;28407;51.830;5.684;2023-07-31T03:38:13;18.70;80.90
42755;DHT22;28407;51.830;5.684;2023-07-31T03:40:13;18.70;80.80
42755;DHT22;28407;51.830;5.684;2023-07-31T03:42:14;18.70;80.80
42755;DHT22;28407;51.830;5.684;2023-07-31T03:44:15;18.80;80.80
42755;DHT22;28407;51.830;5.684;2023-07-31T03:46:16;18.70;80.80
42755;DHT22;28407;51.830;5.684;2023-07-31T03:48:16;18.70;80.70
42755;DHT22;28407;51.830;5.684;2023-07-31T03:50:17;18.70;80.60
42755;DHT22;28407;51.830;5.684;2023-07-31T03:52:18;18.70;80.60
42755;DHT22;28407;51.830;5.684;2023-07-31T03:54:18;18.70;80.60
42755;DHT22;28407;51.830;5.684;2023-07-31T03:56:19;18.70;80.50
42755;DHT22;28407;51.830;5.684;2023-07-31T03:58:20;18.70;80.60
42755;DHT22;28407;51.830;5.684;2023-07-31T04:00:20;18.70;80.60
42755;DHT22;28407;51.830;5.684;2023-07-31T04:02:22;18.70;80.60
42755;DHT22;28407;51.830;5.684;2023-07-31T04:04:23;18.70;80.60
42755;DHT22;28407;51.830;5.684;2023-07-31T04:06:24;18.70;80.60
42755;DHT22;28407;51.830;5.684;2023-07-31T04:08:25;18.60;80.60
42755;DHT22;28407;51.830;5.684;2023-07-31T04:10:25;18.60;80.60
42755;DHT22;28407;51.830;5.684;2023-07-31T04:12:26;18.60;80.50
42755;DHT22;28407;51.830;5.684;2023-07-31T04:14:35;18.60;80.50
42755;DHT22;28407;51.830;5.684;2023-07-31T04:16:36;18.60;80.50
42755;DHT22;28407;51.830;5.684;2023-07-31T04:18:37;18.60;80.50
42755;DHT22;28407;51.830;5.684;2023-07-31T04:20:38;18.60;80.50
42755;DHT22;28407;51.830;5.684;2023-07-31T04:22:39;18.60;80.50
42755;DHT22;28407;51.830;5.684;2023-07-31T04:24:39;18.60;80.50
42755;DHT22;28407;51.830;5.684;2023-07-31T04:26:40;18.60;80.50
42755;DHT22;28407;51.830;5.684;2023-07-31T04:28:41;18.60;80.50
42755;DHT22;28407;51.830;5.684;2023-07-31T04:30:41;18.60;80.50
42755;DHT22;28407;51.830;5.684;2023-07-31T04:32:42;18.60;80.50
42755;DHT22;28407;51.830;5.684;2023-07-31T04:34:43;18.60;80.50
42755;DHT22;28407;51.830;5.684;2023-07-31T04:36:44;18.60;80.50
42755;DHT22;28407;51.830;5.684;2023-07-31T04:38:45;18.60;81.10
42755;DHT22;28407;51.830;5.684;2023-07-31T04:40:46;18.60;80.40
42755;DHT22;28407;51.830;5.684;2023-07-31T04:42:46;18.60;80.40
42755;DHT22;28407;51.830;5.684;2023-07-31T04:44:47;18.60;80.40
42755;DHT22;28407;51.830;5.684;2023-07-31T04:46:48;18.60;80.50
42755;DHT22;28407;51.830;5.684;2023-07-31T04:48:48;18.60;80.50
42755;DHT22;28407;51.830;5.684;2023-07-31T04:50:49;18.60;80.60
42755;DHT22;28407;51.830;5.684;2023-07-31T04:52:50;18.60;80.60
42755;DHT22;28407;51.830;5.684;2023-07-31T04:54:50;18.50;80.50
42755;DHT22;28407;51.830;5.684;2023-07-31T04:56:51;18.60;80.60
42755;DHT22;28407;51.830;5.684;2023-07-31T04:58:52;18.60;80.50
42755;DHT22;28407;51.830;5.684;2023-07-31T05:00:53;18.60;80.50
42755;DHT22;28407;51.830;5.684;2023-07-31T05:02:54;18.60;80.50
42755;DHT22;28407;51.830;5.684;2023-07-31T05:04:55;18.60;80.50
42755;DHT22;28407;51.830;5.684;2023-07-31T05:06:55;18.60;80.50
42755;DHT22;28407;51.830;5.684;2023-07-31T05:08:56;18.60;80.60
42755;DHT22;28407;51.830;5.684;2023-07-31T05:10:57;18.60;80.50
42755;DHT22;28407;51.830;5.684;2023-07-31T05:12:57;18.60;81.20
42755;DHT22;28407;51.830;5.684;2023-07-31T05:14:58;18.60;80.60
42755;DHT22;28407;51.830;5.684;2023-07-31T05:16:59;18.60;80.70
42755;DHT22;28407;51.830;5.684;2023-07-31T05:18:59;18.60;80.70
42755;DHT22;28407;51.830;5.684;2023-07-31T05:21:00;18.60;80.70
42755;DHT22;28407;51.830;5.684;2023-07-31T05:23:01;18.60;80.70
42755;DHT22;28407;51.830;5.684;2023-07-31T05:25:01;18.60;80.70
42755;DHT22;28407;51.830;5.684;2023-07-31T05:27:02;18.50;80.80
42755;DHT22;28407;51.830;5.684;2023-07-31T05:29:03;18.60;80.90
42755;DHT22;28407;51.830;5.684;2023-07-31T05:31:04;18.60;81.00
42755;DHT22;28407;51.830;5.684;2023-07-31T05:33:06;18.50;81.00
42755;DHT22;28407;51.830;5.684;2023-07-31T05:35:06;18.60;81.80
42755;DHT22;28407;51.830;5.684;2023-07-31T05:37:09;18.60;81.20
42755;DHT22;28407;51.830;5.684;2023-07-31T05:39:10;18.60;81.90
42755;DHT22;28407;51.830;5.684;2023-07-31T05:41:13;18.60;81.30
42755;DHT22;28407;51.830;5.684;2023-07-31T05:43:14;18.60;81.40
42755;DHT22;28407;51.830;5.684;2023-07-31T05:45:15;18.50;81.40
42755;DHT22;28407;51.830;5.684;2023-07-31T05:47:16;18.50;81.50
42755;DHT22;28407;51.830;5.684;2023-07-31T05:49:17;18.50;81.60
42755;DHT22;28407;51.830;5.684;2023-07-31T05:51:17;18.50;81.80
42755;DHT22;28407;51.830;5.684;2023-07-31T05:53:18;18.50;81.80
42755;DHT22;28407;51.830;5.684;2023-07-31T05:55:19;18.60;81.90
42755;DHT22;28407;51.830;5.684;2023-07-31T05:57:19;18.50;81.90
42755;DHT22;28407;51.830;5.684;2023-07-31T05:59:20;18.50;82.00
42755;DHT22;28407;51.830;5.684;2023-07-31T06:01:21;18.50;82.00
42755;DHT22;28407;51.830;5.684;2023-07-31T06:03:22;18.50;82.20
42755;DHT22;28407;51.830;5.684;2023-07-31T06:05:22;18.50;82.20
42755;DHT22;28407;51.830;5.684;2023-07-31T06:07:23;18.50;82.30
42755;DHT22;28407;51.830;5.684;2023-07-31T06:09:24;18.50;82.40
42755;DHT22;28407;51.830;5.684;2023-07-31T06:11:25;18.50;82.50
42755;DHT22;28407;51.830;5.684;2023-07-31T06:13:25;18.50;82.50
42755;DHT22;28407;51.830;5.684;2023-07-31T06:15:27;18.50;82.60
42755;DHT22;28407;51.830;5.684;2023-07-31T06:17:27;18.50;82.70
42755;DHT22;28407;51.830;5.684;2023-07-31T06:19:28;18.50;82.80
42755;DHT22;28407;51.830;5.684;2023-07-31T06:21:29;18.50;82.80
42755;DHT22;28407;51.830;5.684;2023-07-31T06:23:30;18.50;83.50
42755;DHT22;28407;51.830;5.684;2023-07-31T06:25:31;18.60;82.90
42755;DHT22;28407;51.830;5.684;2023-07-31T06:27:31;18.60;82.90
42755;DHT22;28407;51.830;5.684;2023-07-31T06:29:32;18.60;83.00
42755;DHT22;28407;51.830;5.684;2023-07-31T06:31:33;18.60;83.10
42755;DHT22;28407;51.830;5.684;2023-07-31T06:33:33;18.60;83.10
42755;DHT22;28407;51.830;5.684;2023-07-31T06:35:34;18.60;83.20
42755;DHT22;28407;51.830;5.684;2023-07-31T06:37:35;18.60;83.20
42755;DHT22;28407;51.830;5.684;2023-07-31T06:39:35;18.60;83.20
42755;DHT22;28407;51.830;5.684;2023-07-31T06:41:36;18.60;83.30
42755;DHT22;28407;51.830;5.684;2023-07-31T06:43:40;18.60;83.30
42755;DHT22;28407;51.830;5.684;2023-07-31T06:45:41;18.60;83.40
42755;DHT22;28407;51.830;5.684;2023-07-31T06:47:41;18.60;83.50
42755;DHT22;28407;51.830;5.684;2023-07-31T06:49:42;18.60;83.60
42755;DHT22;28407;51.830;5.684;2023-07-31T06:51:43;18.60;83.60
42755;DHT22;28407;51.830;5.684;2023-07-31T06:53:44;18.60;83.70
42755;DHT22;28407;51.830;5.684;2023-07-31T06:55:45;18.60;83.70
42755;DHT22;28407;51.830;5.684;2023-07-31T06:57:47;18.60;83.70
42755;DHT22;28407;51.830;5.684;2023-07-31T06:59:48;18.60;83.70
42755;DHT22;28407;51.830;5.684;2023-07-31T07:01:49;18.60;83.80
42755;DHT22;28407;51.830;5.684;2023-07-31T07:03:49;18.60;83.90
42755;DHT22;28407;51.830;5.684;2023-07-31T07:05:51;18.60;84.00
42755;DHT22;28407;51.830;5.684;2023-07-31T07:07:52;18.70;84.00
42755;DHT22;28407;51.830;5.684;2023-07-31T07:09:52;18.70;84.10
42755;DHT22;28407;51.830;5.684;2023-07-31T07:11:53;18.70;84.10
42755;DHT22;28407;51.830;5.684;2023-07-31T07:13:54;18.70;84.20
42755;DHT22;28407;51.830;5.684;2023-07-31T07:15:54;18.70;84.20
42755;DHT22;28407;51.830;5.684;2023-07-31T07:17:55;18.70;84.20
42755;DHT22;28407;51.830;5.684;2023-07-31T07:19:56;18.70;84.20
42755;DHT22;28407;51.830;5.684;2023-07-31T07:21:56;18.70;84.30
42755;DHT22;28407;51.830;5.684;2023-07-31T07:23:57;18.70;84.20
42755;DHT22;28407;51.830;5.684;2023-07-31T07:25:57;18.70;84.30
42755;DHT22;28407;51.830;5.684;2023-07-31T07:27:58;18.70;84.30
42755;DHT22;28407;51.830;5.684;2023-07-31T07:29:59;18.70;84.30
42755;DHT22;28407;51.830;5.684;2023-07-31T07:32:00;18.80;84.40
42755;DHT22;28407;51.830;5.684;2023-07-31T07:34:00;18.80;84.50
42755;DHT22;28407;51.830;5.684;2023-07-31T07:36:02;18.80;84.50
42755;DHT22;28407;51.830;5.684;2023-07-31T07:38:03;18.80;84.30
42755;DHT22;28407;51.830;5.684;2023-07-31T07:40:04;18.80;84.30
42755;DHT22;28407;51.830;5.684;2023-07-31T07:42:05;18.80;84.40
42755;DHT22;28407;51.830;5.684;2023-07-31T07:44:07;18.80;84.50
42755;DHT22;28407;51.830;5.684;2023-07-31T07:46:08;18.80;84.60
42755;DHT22;28407;51.830;5.684;2023-07-31T07:48:09;18.80;84.60
42755;DHT22;28407;51.830;5.684;2023-07-31T07:50:10;18.80;84.70
42755;DHT22;28407;51.830;5.684;2023-07-31T07:52:11;18.80;84.70
42755;DHT22;28407;51.830;5.684;2023-07-31T07:54:15;18.80;84.90
42755;DHT22;28407;51.830;5.684;2023-07-31T07:56:17;18.80;85.00
42755;DHT22;28407;51.830;5.684;2023-07-31T07:58:18;18.80;85.00
42755;DHT22;28407;51.830;5.684;2023-07-31T08:00:18;18.80;85.00
42755;DHT22;28407;51.830;5.684;2023-07-31T08:02:19;18.80;85.00
42755;DHT22;28407;51.830;5.684;2023-07-31T08:04:20;18.80;85.10
42755;DHT22;28407;51.830;5.684;2023-07-31T08:06:20;18.80;85.10
42755;DHT22;28407;51.830;5.684;2023-07-31T08:08:23;18.80;85.10
42755;DHT22;28407;51.830;5.684;2023-07-31T08:10:23;18.80;85.10
42755;DHT22;28407;51.830;5.684;2023-07-31T08:12:24;18.80;85.90
42755;DHT22;28407;51.830;5.684;2023-07-31T08:14:25;18.80;85.20
42755;DHT22;28407;51.830;5.684;2023-07-31T08:16:26;18.80;85.30
42755;DHT22;28407;51.830;5.684;2023-07-31T08:18:26;18.80;85.40
42755;DHT22;28407;51.830;5.684;2023-07-31T08:20:27;18.80;85.40
42755;DHT22;28407;51.830;5.684;2023-07-31T08:22:28;18.80;85.50
42755;DHT22;28407;51.830;5.684;2023-07-31T08:24:28;18.80;85.50
42755;DHT22;28407;51.830;5.684;2023-07-31T08:26:29;18.80;85.60
42755;DHT22;28407;51.830;5.684;2023-07-31T08:28:30;18.80;85.60
42755;DHT22;28407;51.830;5.684;2023-07-31T08:30:30;18.80;85.60
42755;DHT22;28407;51.830;5.684;2023-07-31T08:32:31;18.80;85.70
42755;DHT22;28407;51.830;5.684;2023-07-31T08:34:32;18.80;85.70
42755;DHT22;28407;51.830;5.684;2023-07-31T08:36:33;18.80;85.70
42755;DHT22;28407;51.830;5.684;2023-07-31T08:38:34;18.80;85.80
42755;DHT22;28407;51.830;5.684;2023-07-31T08:40:37;18.80;85.80
42755;DHT22;28407;51.830;5.684;2023-07-31T08:42:48;18.80;85.80
42755;DHT22;28407;51.830;5.684;2023-07-31T08:44:49;18.80;86.00
42755;DHT22;28407;51.830;5.684;2023-07-31T08:46:50;18.80;86.00
42755;DHT22;28407;51.830;5.684;2023-07-31T08:48:52;18.80;86.00
42755;DHT22;28407;51.830;5.684;2023-07-31T08:50:54;18.80;86.10
42755;DHT22;28407;51.830;5.684;2023-07-31T08:52:54;18.80;86.10
42755;DHT22;28407;51.830;5.684;2023-07-31T08:54:55;18.80;86.10
42755;DHT22;28407;51.830;5.684;2023-07-31T08:56:57;18.80;86.20
42755;DHT22;28407;51.830;5.684;2023-07-31T08:59:02;18.80;86.20
42755;DHT22;28407;51.830;5.684;2023-07-31T09:01:05;18.90;86.20
42755;DHT22;28407;51.830;5.684;2023-07-31T09:03:14;18.90;86.20
42755;DHT22;28407;51.830;5.684;2023-07-31T09:05:16;18.90;86.20
42755;DHT22;28407;51.830;5.684;2023-07-31T09:07:17;18.90;86.20
42755;DHT22;28407;51.830;5.684;2023-07-31T09:09:18;18.90;86.20
42755;DHT22;28407;51.830;5.684;2023-07-31T09:11:21;18.90;86.20
42755;DHT22;28407;51.830;5.684;2023-07-31T09:13:22;18.90;86.20
42755;DHT22;28407;51.830;5.684;2023-07-31T09:15:23;18.90;86.20
42755;DHT22;28407;51.830;5.684;2023-07-31T09:17:32;19.00;86.20
42755;DHT22;28407;51.830;5.684;2023-07-31T09:19:35;18.90;86.20
42755;DHT22;28407;51.830;5.684;2023-07-31T09:21:48;18.90;86.30
42755;DHT22;28407;51.830;5.684;2023-07-31T09:23:49;19.00;86.30
42755;DHT22;28407;51.830;5.684;2023-07-31T09:25:51;18.90;86.20
42755;DHT22;28407;51.830;5.684;2023-07-31T09:28:00;18.90;86.30
42755;DHT22;28407;51.830;5.684;2023-07-31T09:30:00;19.00;86.40
42755;DHT22;28407;51.830;5.684;2023-07-31T09:32:01;19.00;86.40
42755;DHT22;28407;51.830;5.684;2023-07-31T09:34:02;19.00;86.40
42755;DHT22;28407;51.830;5.684;2023-07-31T09:36:04;18.90;86.30
42755;DHT22;28407;51.830;5.684;2023-07-31T09:38:07;19.00;86.40
42755;DHT22;28407;51.830;5.684;2023-07-31T09:40:09;19.00;86.40
42755;DHT22;28407;51.830;5.684;2023-07-31T09:42:26;19.00;86.40
42755;DHT22;28407;51.830;5.684;2023-07-31T09:44:40;19.00;86.40
42755;DHT22;28407;51.830;5.684;2023-07-31T09:46:42;19.00;86.40
42755;DHT22;28407;51.830;5.684;2023-07-31T09:48:43;19.00;86.30
42755;DHT22;28407;51.830;5.684;2023-07-31T09:50:48;19.00;86.30
42755;DHT22;28407;51.830;5.684;2023-07-31T09:52:50;19.00;86.30
42755;DHT22;28407;51.830;5.684;2023-07-31T09:54:51;19.00;86.30
42755;DHT22;28407;51.830;5.684;2023-07-31T09:56:52;19.00;86.30
42755;DHT22;28407;51.830;5.684;2023-07-31T09:58:55;19.00;86.40
42755;DHT22;28407;51.830;5.684;2023-07-31T10:00:57;19.00;86.40
42755;DHT22;28407;51.830;5.684;2023-07-31T10:03:01;19.00;86.40
42755;DHT22;28407;51.830;5.684;2023-07-31T10:05:03;19.10;86.40
42755;DHT22;28407;51.830;5.684;2023-07-31T10:07:05;19.10;86.40
42755;DHT22;28407;51.830;5.684;2023-07-31T10:09:08;19.10;86.30
42755;DHT22;28407;51.830;5.684;2023-07-31T10:11:09;19.10;86.30
42755;DHT22;28407;51.830;5.684;2023-07-31T10:13:12;19.20;86.40
42755;DHT22;28407;51.830;5.684;2023-07-31T10:15:14;19.20;86.40
42755;DHT22;28407;51.830;5.684;2023-07-31T10:17:16;19.20;86.40
42755;DHT22;28407;51.830;5.684;2023-07-31T10:19:18;19.20;86.40
42755;DHT22;28407;51.830;5.684;2023-07-31T10:21:19;19.30;86.40
42755;DHT22;28407;51.830;5.684;2023-07-31T10:23:20;19.30;86.20
42755;DHT22;28407;51.830;5.684;2023-07-31T10:25:22;19.30;86.20
42755;DHT22;28407;51.830;5.684;2023-07-31T10:27:22;19.40;86.20
42755;DHT22;28407;51.830;5.684;2023-07-31T10:29:23;19.40;86.10
42755;DHT22;28407;51.830;5.684;2023-07-31T10:31:24;19.40;86.80
42755;DHT22;28407;51.830;5.684;2023-07-31T10:33:25;19.40;86.80
42755;DHT22;28407;51.830;5.684;2023-07-31T10:35:27;19.50;86.20
42755;DHT22;28407;51.830;5.684;2023-07-31T10:37:36;19.50;86.10
42755;DHT22;28407;51.830;5.684;2023-07-31T10:39:37;19.50;86.10
42755;DHT22;28407;51.830;5.684;2023-07-31T10:41:40;19.60;86.10
42755;DHT22;28407;51.830;5.684;2023-07-31T10:43:41;19.60;86.80
42755;DHT22;28407;51.830;5.684;2023-07-31T10:45:44;19.60;86.00
42755;DHT22;28407;51.830;5.684;2023-07-31T10:47:46;19.60;86.00
42755;DHT22;28407;51.830;5.684;2023-07-31T10:49:46;19.60;86.00
42755;DHT22;28407;51.830;5.684;2023-07-31T10:51:48;19.70;86.00
42755;DHT22;28407;51.830;5.684;2023-07-31T10:53:48;19.70;86.00
42755;DHT22;28407;51.830;5.684;2023-07-31T10:55:49;19.60;85.90
42755;DHT22;28407;51.830;5.684;2023-07-31T10:57:55;19.70;86.00
42755;DHT22;28407;51.830;5.684;2023-07-31T11:02:26;19.70;86.00
42755;DHT22;28407;51.830;5.684;2023-07-31T11:04:30;19.70;86.00
42755;DHT22;28407;51.830;5.684;2023-07-31T11:06:36;19.70;86.00
42755;DHT22;28407;51.830;5.684;2023-07-31T11:08:43;19.70;86.10
42755;DHT22;28407;51.830;5.684;2023-07-31T11:10:45;19.70;86.10
42755;DHT22;28407;51.830;5.684;2023-07-31T11:12:46;19.70;86.10
42755;DHT22;28407;51.830;5.684;2023-07-31T11:14:55;19.70;86.10
42755;DHT22;28407;51.830;5.684;2023-07-31T11:16:56;19.70;86.10
42755;DHT22;28407;51.830;5.684;2023-07-31T11:18:56;19.70;86.10
42755;DHT22;28407;51.830;5.684;2023-07-31T11:20:57;19.70;86.10
42755;DHT22;28407;51.830;5.684;2023-07-31T11:23:00;19.70;86.10
42755;DHT22;28407;51.830;5.684;2023-07-31T11:25:03;19.70;86.00
42755;DHT22;28407;51.830;5.684;2023-07-31T11:27:07;19.70;86.10
42755;DHT22;28407;51.830;5.684;2023-07-31T11:29:11;19.70;86.10
42755;DHT22;28407;51.830;5.684;2023-07-31T11:31:12;19.70;86.00
42755;DHT22;28407;51.830;5.684;2023-07-31T11:33:13;19.70;86.10
42755;DHT22;28407;51.830;5.684;2023-07-31T11:35:14;19.70;86.10
42755;DHT22;28407;51.830;5.684;2023-07-31T11:37:14;19.70;86.10
42755;DHT22;28407;51.830;5.684;2023-07-31T11:39:15;19.70;86.10
42755;DHT22;28407;51.830;5.684;2023-07-31T11:41:16;19.80;86.10
42755;DHT22;28407;51.830;5.684;2023-07-31T11:43:18;19.80;86.80
42755;DHT22;28407;51.830;5.684;2023-07-31T11:45:19;19.80;86.10
42755;DHT22;28407;51.830;5.684;2023-07-31T11:47:20;19.70;86.00
42755;DHT22;28407;51.830;5.684;2023-07-31T11:49:21;19.80;86.10
42755;DHT22;28407;51.830;5.684;2023-07-31T11:51:22;19.80;86.00
42755;DHT22;28407;51.830;5.684;2023-07-31T11:53:33;19.80;86.00
42755;DHT22;28407;51.830;5.684;2023-07-31T11:55:35;19.80;86.00
42755;DHT22;28407;51.830;5.684;2023-07-31T11:57:40;19.80;86.00
42755;DHT22;28407;51.830;5.684;2023-07-31T11:59:42;19.90;86.00
42755;DHT22;28407;51.830;5.684;2023-07-31T12:01:44;19.80;86.00
42755;DHT22;28407;51.830;5.684;2023-07-31T12:03:45;19.90;86.00
42755;DHT22;28407;51.830;5.684;2023-07-31T12:05:47;19.90;86.00
42755;DHT22;28407;51.830;5.684;2023-07-31T12:07:52;19.90;85.90
42755;DHT22;28407;51.830;5.684;2023-07-31T12:09:54;19.90;86.00
42755;DHT22;28407;51.830;5.684;2023-07-31T12:11:55;19.90;86.00
42755;DHT22;28407;51.830;5.684;2023-07-31T12:13:56;19.90;86.00
42755;DHT22;28407;51.830;5.684;2023-07-31T12:15:58;19.90;86.00
42755;DHT22;28407;51.830;5.684;2023-07-31T12:17:59;19.90;86.00
42755;DHT22;28407;51.830;5.684;2023-07-31T12:20:00;19.80;86.10
42755;DHT22;28407;51.830;5.684;2023-07-31T12:22:00;19.80;86.10
42755;DHT22;28407;51.830;5.684;2023-07-31T12:24:02;19.80;86.30
42755;DHT22;28407;51.830;5.684;2023-07-31T12:26:16;19.80;86.20
42755;DHT22;28407;51.830;5.684;2023-07-31T12:28:22;19.80;86.30
42755;DHT22;28407;51.830;5.684;2023-07-31T12:30:29;19.80;86.40
42755;DHT22;28407;51.830;5.684;2023-07-31T12:32:30;19.80;86.40
42755;DHT22;28407;51.830;5.684;2023-07-31T12:34:42;19.80;86.40
42755;DHT22;28407;51.830;5.684;2023-07-31T12:36:44;19.80;86.50
42755;DHT22;28407;51.830;5.684;2023-07-31T12:38:45;19.80;86.50
42755;DHT22;28407;51.830;5.684;2023-07-31T12:40:46;19.80;86.50
42755;DHT22;28407;51.830;5.684;2023-07-31T12:42:47;19.80;86.50
42755;DHT22;28407;51.830;5.684;2023-07-31T12:44:47;19.80;86.50
42755;DHT22;28407;51.830;5.684;2023-07-31T12:46:48;19.80;86.50
42755;DHT22;28407;51.830;5.684;2023-07-31T12:48:49;19.80;86.50
42755;DHT22;28407;51.830;5.684;2023-07-31T12:50:49;19.80;86.60
42755;DHT22;28407;51.830;5.684;2023-07-31T12:52:50;19.80;86.70
42755;DHT22;28407;51.830;5.684;2023-07-31T12:54:51;19.80;86.60
42755;DHT22;28407;51.830;5.684;2023-07-31T12:56:51;19.90;86.70
42755;DHT22;28407;51.830;5.684;2023-07-31T12:58:52;19.90;86.70